createdAt,value
2018-06-16T00:00:00.000Z,21.99
2018-06-16T00:00:59.944Z,21.99
2018-06-16T00:01:59.883Z,21.98
2018-06-16T00:02:59.824Z,21.96
2018-06-16T00:03:59.768Z,21.95
2018-06-16T00:04:59.703Z,22.04
2018-06-16T00:05:59.655Z,21.95
2018-06-16T00:06:59.638Z,21.99
2018-06-16T00:07:59.537Z,21.96
2018-06-16T00:08:59.476Z,21.95
2018-06-16T00:09:59.416Z,21.93
2018-06-16T00:10:59.357Z,21.91
2018-06-16T00:11:59.297Z,21.98
2018-06-16T00:12:59.242Z,21.96
2018-06-16T00:13:59.181Z,21.98
2018-06-16T00:14:59.133Z,21.92
2018-06-16T00:15:59.064Z,21.92
2018-06-16T00:16:59.016Z,21.93
2018-06-16T00:17:58.956Z,21.83
2018-06-16T00:18:58.899Z,21.76
2018-06-16T00:19:58.840Z,21.85
2018-06-16T00:20:58.777Z,21.79
2018-06-16T00:21:58.715Z,21.82
2018-06-16T00:22:58.661Z,21.70
2018-06-16T00:23:58.599Z,21.73
2018-06-16T00:24:58.540Z,21.70
2018-06-16T00:25:58.481Z,21.69
2018-06-16T00:26:58.424Z,21.77
2018-06-16T00:27:58.367Z,21.79
2018-06-16T00:28:58.314Z,21.72
2018-06-16T00:29:58.246Z,21.85
2018-06-16T00:30:58.192Z,21.91
2018-06-16T00:31:58.126Z,21.92
2018-06-16T00:32:58.081Z,21.91
2018-06-16T00:33:58.021Z,21.89
2018-06-16T00:34:57.955Z,21.83
2018-06-16T00:35:57.899Z,21.95
2018-06-16T00:36:57.839Z,21.96
2018-06-16T00:37:57.781Z,21.96
2018-06-16T00:38:57.721Z,21.92
2018-06-16T00:39:57.677Z,21.83
2018-06-16T00:40:57.603Z,21.75
2018-06-16T00:41:57.550Z,21.75
2018-06-16T00:42:57.492Z,21.76
2018-06-16T00:43:57.439Z,21.91
2018-06-16T00:44:57.367Z,21.79
2018-06-16T00:45:57.360Z,21.89
2018-06-16T00:46:57.255Z,21.88
2018-06-16T00:47:57.198Z,21.89
2018-06-16T00:48:57.138Z,21.72
2018-06-16T00:49:57.095Z,21.88
2018-06-16T00:50:57.028Z,21.73
2018-06-16T00:51:56.961Z,21.82
2018-06-16T00:52:56.929Z,21.88
2018-06-16T00:53:56.852Z,21.76
2018-06-16T00:54:56.789Z,21.79
2018-06-16T00:55:56.737Z,21.73
2018-06-16T00:56:56.672Z,21.73
2018-06-16T00:57:56.612Z,21.73
2018-06-16T00:58:56.554Z,21.77
2018-06-16T00:59:56.495Z,21.77
2018-06-16T01:00:56.436Z,21.70
2018-06-16T01:01:56.383Z,21.69
2018-06-16T01:02:56.326Z,21.75
2018-06-16T01:03:56.260Z,21.76
2018-06-16T01:04:56.214Z,21.75
2018-06-16T01:05:56.143Z,21.77
2018-06-16T01:06:56.082Z,21.76
2018-06-16T01:07:56.026Z,21.75
2018-06-16T01:08:55.961Z,21.72
2018-06-16T01:09:55.927Z,21.69
2018-06-16T01:10:55.852Z,21.67
2018-06-16T01:11:55.793Z,21.64
2018-06-16T01:12:55.736Z,21.73
2018-06-16T01:13:55.675Z,21.67
2018-06-16T01:14:55.613Z,21.70
2018-06-16T01:15:55.555Z,21.64
2018-06-16T01:16:55.496Z,21.67
2018-06-16T01:17:55.438Z,21.67
2018-06-16T01:18:55.380Z,21.72
2018-06-16T01:19:55.322Z,21.67
2018-06-16T01:20:55.261Z,21.70
2018-06-16T01:21:55.204Z,21.66
2018-06-16T01:22:55.143Z,21.69
2018-06-16T01:23:55.088Z,21.62
2018-06-16T01:24:55.028Z,21.61
2018-06-16T01:25:54.970Z,21.61
2018-06-16T01:26:54.908Z,21.55
2018-06-16T01:27:54.849Z,21.52
2018-06-16T01:28:54.791Z,21.54
2018-06-16T01:29:54.734Z,21.55
2018-06-16T01:30:54.676Z,21.58
2018-06-16T01:31:54.619Z,21.66
2018-06-16T01:32:54.560Z,21.60
2018-06-16T01:33:54.497Z,21.54
2018-06-16T01:34:54.439Z,21.54
2018-06-16T01:35:54.396Z,21.54
2018-06-16T01:36:54.326Z,21.52
2018-06-16T01:37:54.274Z,21.60
2018-06-16T01:38:54.201Z,21.51
2018-06-16T01:39:54.145Z,21.54
2018-06-16T01:40:54.088Z,21.43
2018-06-16T01:41:54.025Z,21.46
2018-06-16T01:42:53.971Z,21.36
2018-06-16T01:43:53.912Z,21.42
2018-06-16T01:44:53.854Z,21.30
2018-06-16T01:45:53.793Z,21.33
2018-06-16T01:46:53.733Z,21.29
2018-06-16T01:47:53.675Z,21.30
2018-06-16T01:48:53.616Z,21.39
2018-06-16T01:49:53.564Z,21.33
2018-06-16T01:50:53.499Z,21.29
2018-06-16T01:51:53.447Z,21.29
2018-06-16T01:52:53.383Z,21.33
2018-06-16T01:53:53.318Z,21.40
2018-06-16T01:54:53.265Z,21.42
2018-06-16T01:55:53.207Z,21.35
2018-06-16T01:56:53.151Z,21.27
2018-06-16T01:57:53.089Z,21.32
2018-06-16T01:58:53.029Z,21.32
2018-06-16T01:59:52.971Z,21.25
2018-06-16T02:00:52.912Z,21.20
2018-06-16T02:01:52.852Z,21.22
2018-06-16T02:02:52.794Z,21.17
2018-06-16T02:03:52.747Z,21.20
2018-06-16T02:04:52.697Z,21.22
2018-06-16T02:05:52.629Z,21.25
2018-06-16T02:06:52.563Z,21.24
2018-06-16T02:07:52.497Z,21.30
2018-06-16T02:08:52.448Z,21.21
2018-06-16T02:09:52.380Z,21.18
2018-06-16T02:10:52.325Z,21.20
2018-06-16T02:11:52.263Z,21.20
2018-06-16T02:12:52.204Z,21.21
2018-06-16T02:13:52.145Z,21.12
2018-06-16T02:14:52.089Z,21.17
2018-06-16T02:15:52.031Z,21.17
2018-06-16T02:16:51.971Z,21.12
2018-06-16T02:17:51.920Z,21.07
2018-06-16T02:18:51.849Z,20.99
2018-06-16T02:19:51.792Z,21.07
2018-06-16T02:20:51.737Z,21.06
2018-06-16T02:21:51.673Z,21.09
2018-06-16T02:22:51.623Z,21.03
2018-06-16T02:23:51.560Z,21.06
2018-06-16T02:24:51.507Z,21.06
2018-06-16T02:25:51.439Z,20.97
2018-06-16T02:26:51.378Z,21.09
2018-06-16T02:27:51.324Z,21.07
2018-06-16T02:28:51.266Z,21.02
2018-06-16T02:29:51.209Z,21.07
2018-06-16T02:30:51.145Z,21.06
2018-06-16T02:31:51.084Z,21.07
2018-06-16T02:32:51.025Z,20.99
2018-06-16T02:33:50.967Z,21.07
2018-06-16T02:34:50.909Z,20.99
2018-06-16T02:35:50.855Z,20.85
2018-06-16T02:36:50.792Z,20.85
2018-06-16T02:37:50.731Z,20.82
2018-06-16T02:38:50.671Z,20.90
2018-06-16T02:39:50.613Z,20.87
2018-06-16T02:40:50.558Z,20.87
2018-06-16T02:41:50.498Z,20.87
2018-06-16T02:42:50.435Z,20.95
2018-06-16T02:43:50.377Z,20.96
2018-06-16T02:44:50.323Z,20.92
2018-06-16T02:45:50.259Z,20.87
2018-06-16T02:46:50.201Z,20.84
2018-06-16T02:47:50.141Z,20.82
2018-06-16T02:48:50.083Z,20.78
2018-06-16T02:49:50.022Z,20.80
2018-06-16T02:50:49.970Z,20.67
2018-06-16T02:51:49.902Z,20.78
2018-06-16T02:52:49.840Z,20.85
2018-06-16T02:53:49.786Z,20.84
2018-06-16T02:54:49.730Z,20.81
2018-06-16T02:55:49.666Z,20.81
2018-06-16T02:56:49.614Z,20.87
2018-06-16T02:57:49.549Z,20.81
2018-06-16T02:58:49.495Z,20.87
2018-06-16T02:59:49.432Z,20.95
2018-06-16T03:00:49.373Z,20.88
2018-06-16T03:01:49.314Z,20.92
2018-06-16T03:02:49.251Z,20.95
2018-06-16T03:03:49.193Z,20.97
2018-06-16T03:04:49.134Z,20.93
2018-06-16T03:05:49.074Z,20.93
2018-06-16T03:06:49.018Z,20.93
2018-06-16T03:07:48.960Z,20.85
2018-06-16T03:08:48.913Z,20.85
2018-06-16T03:09:48.844Z,20.87
2018-06-16T03:10:48.778Z,20.75
2018-06-16T03:11:48.724Z,20.72
2018-06-16T03:12:48.665Z,20.72
2018-06-16T03:13:48.608Z,20.69
2018-06-16T03:14:48.537Z,20.62
2018-06-16T03:15:48.490Z,20.66
2018-06-16T03:16:48.425Z,20.72
2018-06-16T03:17:48.364Z,20.69
2018-06-16T03:18:48.307Z,20.87
2018-06-16T03:19:48.249Z,20.80
2018-06-16T03:20:48.189Z,20.77
2018-06-16T03:21:48.133Z,20.84
2018-06-16T03:22:48.068Z,20.82
2018-06-16T03:23:48.010Z,20.93
2018-06-16T03:24:47.950Z,20.84
2018-06-16T03:25:47.914Z,20.93
2018-06-16T03:26:47.831Z,20.90
2018-06-16T03:27:47.774Z,20.85
2018-06-16T03:28:47.719Z,20.96
2018-06-16T03:29:47.649Z,20.95
2018-06-16T03:30:47.602Z,20.92
2018-06-16T03:31:47.543Z,20.92
2018-06-16T03:32:47.487Z,20.88
2018-06-16T03:33:47.419Z,20.85
2018-06-16T03:34:47.358Z,20.90
2018-06-16T03:35:47.303Z,20.90
2018-06-16T03:36:47.240Z,21.00
2018-06-16T03:37:47.180Z,21.11
2018-06-16T03:38:47.122Z,21.07
2018-06-16T03:39:47.069Z,21.06
2018-06-16T03:40:47.006Z,21.00
2018-06-16T03:41:46.945Z,21.07
2018-06-16T03:42:46.884Z,21.09
2018-06-16T03:43:46.824Z,21.09
2018-06-16T03:44:46.768Z,21.06
2018-06-16T03:45:46.709Z,21.07
2018-06-16T03:46:46.648Z,21.12
2018-06-16T03:47:46.589Z,21.12
2018-06-16T03:48:46.530Z,21.17
2018-06-16T03:49:46.469Z,21.17
2018-06-16T03:50:46.415Z,21.14
2018-06-16T03:51:46.359Z,21.14
2018-06-16T03:52:46.298Z,21.20
2018-06-16T03:53:46.236Z,21.24
2018-06-16T03:54:46.181Z,21.21
2018-06-16T03:55:46.120Z,21.25
2018-06-16T03:56:46.057Z,21.24
2018-06-16T03:57:45.996Z,21.17
2018-06-16T03:58:45.940Z,21.32
2018-06-16T03:59:45.882Z,21.35
2018-06-16T04:00:45.821Z,21.36
2018-06-16T04:01:45.787Z,21.27
2018-06-16T04:02:45.712Z,21.33
2018-06-16T04:03:45.643Z,21.36
2018-06-16T04:04:45.596Z,21.40
2018-06-16T04:05:45.527Z,21.39
2018-06-16T04:06:45.467Z,21.33
2018-06-16T04:07:45.408Z,21.37
2018-06-16T04:08:45.352Z,21.43
2018-06-16T04:09:45.292Z,21.35
2018-06-16T04:10:45.231Z,21.33
2018-06-16T04:11:45.175Z,21.35
2018-06-16T04:12:45.115Z,21.37
2018-06-16T04:13:45.056Z,21.42
2018-06-16T04:14:44.995Z,21.25
2018-06-16T04:15:44.937Z,21.29
2018-06-16T04:16:44.883Z,21.39
2018-06-16T04:17:44.820Z,21.43
2018-06-16T04:18:44.761Z,21.37
2018-06-16T04:19:44.700Z,21.50
2018-06-16T04:20:44.648Z,21.50
2018-06-16T04:21:44.581Z,21.58
2018-06-16T04:22:44.526Z,21.58
2018-06-16T04:23:44.468Z,21.55
2018-06-16T04:24:44.407Z,21.55
2018-06-16T04:25:44.350Z,21.55
2018-06-16T04:26:44.288Z,21.55
2018-06-16T04:27:44.230Z,21.50
2018-06-16T04:28:44.171Z,21.40
2018-06-16T04:29:44.112Z,21.52
2018-06-16T04:30:44.061Z,21.62
2018-06-16T04:31:43.997Z,21.54
2018-06-16T04:32:43.938Z,21.66
2018-06-16T04:33:43.882Z,21.66
2018-06-16T04:34:43.849Z,21.69
2018-06-16T04:35:43.770Z,21.72
2018-06-16T04:36:43.709Z,21.73
2018-06-16T04:37:43.662Z,21.76
2018-06-16T04:38:43.585Z,21.83
2018-06-16T04:39:43.525Z,21.82
2018-06-16T04:40:43.469Z,21.77
2018-06-16T04:41:43.408Z,21.82
2018-06-16T04:42:43.350Z,21.80
2018-06-16T04:43:43.297Z,21.92
2018-06-16T04:44:43.245Z,21.91
2018-06-16T04:45:43.309Z,21.91
2018-06-16T04:46:43.115Z,21.89
2018-06-16T04:47:43.057Z,21.96
2018-06-16T04:48:43.001Z,21.95
2018-06-16T04:49:42.944Z,22.04
2018-06-16T04:50:42.882Z,22.07
2018-06-16T04:51:42.829Z,22.08
2018-06-16T04:52:42.767Z,22.14
2018-06-16T04:53:42.707Z,22.14
2018-06-16T04:54:42.651Z,22.17
2018-06-16T04:55:42.594Z,22.17
2018-06-16T04:56:42.534Z,22.14
2018-06-16T04:57:42.475Z,22.23
2018-06-16T04:58:42.429Z,22.25
2018-06-16T04:59:42.356Z,22.23
2018-06-16T05:00:42.316Z,22.26
2018-06-16T05:01:42.238Z,22.28
2018-06-16T05:02:42.189Z,22.36
2018-06-16T05:03:42.126Z,22.44
2018-06-16T05:04:42.065Z,22.30
2018-06-16T05:05:42.009Z,22.50
2018-06-16T05:06:41.951Z,22.48
2018-06-16T05:07:41.894Z,22.47
2018-06-16T05:08:41.842Z,22.53
2018-06-16T05:09:41.775Z,22.48
2018-06-16T05:10:41.715Z,22.47
2018-06-16T05:11:41.668Z,22.51
2018-06-16T05:12:41.601Z,22.28
2018-06-16T05:13:41.544Z,22.44
2018-06-16T05:14:41.487Z,22.48
2018-06-16T05:15:41.428Z,22.44
2018-06-16T05:16:41.371Z,22.62
2018-06-16T05:17:41.312Z,22.57
2018-06-16T05:18:41.253Z,22.76
2018-06-16T05:19:41.200Z,22.78
2018-06-16T05:20:41.150Z,22.88
2018-06-16T05:21:41.078Z,22.87
2018-06-16T05:22:41.021Z,22.84
2018-06-16T05:23:40.961Z,22.85
2018-06-16T05:24:40.912Z,22.85
2018-06-16T05:25:40.872Z,22.80
2018-06-16T05:26:40.793Z,22.85
2018-06-16T05:27:40.738Z,22.85
2018-06-16T05:28:40.677Z,22.75
2018-06-16T05:29:40.627Z,22.88
2018-06-16T05:30:40.561Z,22.87
2018-06-16T05:31:40.508Z,22.85
2018-06-16T05:32:40.445Z,22.87
2018-06-16T05:33:40.389Z,22.96
2018-06-16T05:34:40.329Z,23.02
2018-06-16T05:35:40.273Z,22.96
2018-06-16T05:36:40.216Z,22.98
2018-06-16T05:37:40.164Z,23.00
2018-06-16T05:38:40.099Z,23.12
2018-06-16T05:39:40.050Z,23.05
2018-06-16T05:40:39.986Z,23.21
2018-06-16T05:41:39.929Z,23.20
2018-06-16T05:42:39.870Z,23.23
2018-06-16T05:43:39.816Z,23.21
2018-06-16T05:44:39.758Z,23.21
2018-06-16T05:45:39.697Z,23.34
2018-06-16T05:46:39.642Z,23.31
2018-06-16T05:47:39.590Z,23.36
2018-06-16T05:48:39.528Z,23.34
2018-06-16T05:49:39.471Z,23.46
2018-06-16T05:50:39.412Z,23.41
2018-06-16T05:51:39.353Z,23.54
2018-06-16T05:52:39.299Z,23.56
2018-06-16T05:53:39.240Z,23.55
2018-06-16T05:54:39.181Z,23.69
2018-06-16T05:55:39.126Z,23.71
2018-06-16T05:56:39.072Z,23.77
2018-06-16T05:57:39.010Z,23.74
2018-06-16T05:58:38.956Z,23.73
2018-06-16T05:59:38.898Z,23.71
2018-06-16T06:00:38.842Z,23.80
2018-06-16T06:01:38.781Z,23.84
2018-06-16T06:02:38.726Z,23.84
2018-06-16T06:03:38.666Z,23.93
2018-06-16T06:04:38.611Z,23.88
2018-06-16T06:05:38.554Z,23.95
2018-06-16T06:06:38.499Z,23.92
2018-06-16T06:07:38.442Z,23.92
2018-06-16T06:08:38.384Z,24.02
2018-06-16T06:09:38.321Z,24.06
2018-06-16T06:10:38.343Z,24.06
2018-06-16T06:11:38.221Z,24.17
2018-06-16T06:12:38.157Z,24.13
2018-06-16T06:13:38.101Z,24.06
2018-06-16T06:14:38.042Z,24.10
2018-06-16T06:15:38.032Z,24.08
2018-06-16T06:16:37.928Z,24.06
2018-06-16T06:17:37.871Z,23.95
2018-06-16T06:18:37.817Z,23.91
2018-06-16T06:19:37.763Z,23.81
2018-06-16T06:20:37.704Z,23.76
2018-06-16T06:21:37.646Z,23.69
2018-06-16T06:22:37.589Z,23.68
2018-06-16T06:23:37.532Z,23.59
2018-06-16T06:24:37.476Z,23.46
2018-06-16T06:25:37.419Z,23.44
2018-06-16T06:26:37.361Z,23.55
2018-06-16T06:27:37.304Z,23.69
2018-06-16T06:28:37.249Z,23.81
2018-06-16T06:29:37.189Z,23.78
2018-06-16T06:30:37.137Z,23.95
2018-06-16T06:31:37.081Z,24.13
2018-06-16T06:32:37.021Z,24.18
2018-06-16T06:33:36.965Z,24.20
2018-06-16T06:34:36.904Z,24.28
2018-06-16T06:35:36.852Z,24.21
2018-06-16T06:36:36.796Z,24.26
2018-06-16T06:37:36.740Z,24.20
2018-06-16T06:38:36.684Z,24.33
2018-06-16T06:39:36.629Z,24.47
2018-06-16T06:40:36.567Z,24.61
2018-06-16T06:41:36.518Z,24.65
2018-06-16T06:42:36.457Z,24.68
2018-06-16T06:43:36.406Z,24.84
2018-06-16T06:44:36.347Z,24.88
2018-06-16T06:45:36.291Z,24.91
2018-06-16T06:46:36.233Z,24.88
2018-06-16T06:47:36.177Z,24.86
2018-06-16T06:48:36.121Z,24.77
2018-06-16T06:49:36.063Z,24.80
2018-06-16T06:50:36.011Z,24.81
2018-06-16T06:51:35.967Z,24.88
2018-06-16T06:52:35.896Z,25.01
2018-06-16T06:53:35.845Z,24.78
2018-06-16T06:54:35.784Z,24.89
2018-06-16T06:55:35.729Z,24.91
2018-06-16T06:56:35.675Z,24.88
2018-06-16T06:57:35.618Z,24.95
2018-06-16T06:58:35.561Z,24.95
2018-06-16T06:59:35.503Z,25.07
2018-06-16T07:00:35.455Z,25.23
2018-06-16T07:01:35.393Z,25.23
2018-06-16T07:02:35.340Z,25.25
2018-06-16T07:03:35.287Z,25.25
2018-06-16T07:04:35.231Z,25.17
2018-06-16T07:05:35.172Z,25.26
2018-06-16T07:06:35.120Z,25.38
2018-06-16T07:07:35.058Z,25.25
2018-06-16T07:08:35.007Z,25.23
2018-06-16T07:09:34.952Z,25.14
2018-06-16T07:10:34.907Z,25.25
2018-06-16T07:11:34.841Z,25.29
2018-06-16T07:12:34.784Z,25.40
2018-06-16T07:13:34.743Z,25.44
2018-06-16T07:14:34.674Z,25.51
2018-06-16T07:15:34.620Z,25.47
2018-06-16T07:16:34.563Z,25.50
2018-06-16T07:17:34.508Z,25.59
2018-06-16T07:18:34.451Z,25.60
2018-06-16T07:19:34.396Z,25.48
2018-06-16T07:20:34.346Z,25.43
2018-06-16T07:21:34.286Z,25.50
2018-06-16T07:22:34.231Z,25.36
2018-06-16T07:23:34.219Z,25.46
2018-06-16T07:24:34.125Z,25.48
2018-06-16T07:25:34.063Z,25.44
2018-06-16T07:26:34.010Z,25.44
2018-06-16T07:27:33.959Z,25.55
2018-06-16T07:28:33.902Z,25.60
2018-06-16T07:29:33.845Z,25.50
2018-06-16T07:30:33.788Z,25.66
2018-06-16T07:31:33.733Z,25.69
2018-06-16T07:32:33.679Z,25.77
2018-06-16T07:33:33.626Z,25.72
2018-06-16T07:34:33.572Z,25.83
2018-06-16T07:35:33.516Z,25.88
2018-06-16T07:36:33.464Z,25.91
2018-06-16T07:37:33.406Z,25.85
2018-06-16T07:38:33.353Z,25.69
2018-06-16T07:39:33.295Z,25.80
2018-06-16T07:40:33.240Z,25.77
2018-06-16T07:41:33.242Z,25.75
2018-06-16T07:42:33.130Z,25.83
2018-06-16T07:43:33.078Z,25.91
2018-06-16T07:44:33.021Z,25.95
2018-06-16T07:45:32.965Z,26.02
2018-06-16T07:46:32.914Z,25.99
2018-06-16T07:47:32.861Z,26.06
2018-06-16T07:48:32.804Z,26.03
2018-06-16T07:49:32.749Z,25.90
2018-06-16T07:50:32.694Z,25.85
2018-06-16T07:51:32.637Z,25.90
2018-06-16T07:52:32.581Z,25.98
2018-06-16T07:53:32.526Z,26.02
2018-06-16T07:54:32.475Z,26.00
2018-06-16T07:55:32.420Z,26.13
2018-06-16T07:56:32.367Z,26.13
2018-06-16T07:57:32.315Z,25.95
2018-06-16T07:58:32.253Z,25.93
2018-06-16T07:59:32.204Z,25.95
2018-06-16T08:00:32.156Z,25.80
2018-06-16T08:01:32.096Z,25.87
2018-06-16T08:02:32.035Z,25.93
2018-06-16T08:03:31.980Z,26.15
2018-06-16T08:04:31.929Z,26.33
2018-06-16T08:05:31.871Z,26.51
2018-06-16T08:06:31.818Z,26.63
2018-06-16T08:07:31.765Z,26.63
2018-06-16T08:08:31.709Z,26.75
2018-06-16T08:09:31.654Z,26.80
2018-06-16T08:10:31.598Z,26.92
2018-06-16T08:11:31.543Z,27.08
2018-06-16T08:12:31.491Z,27.12
2018-06-16T08:13:31.436Z,27.18
2018-06-16T08:14:31.383Z,27.14
2018-06-16T08:15:31.330Z,27.18
2018-06-16T08:16:31.274Z,27.21
2018-06-16T08:17:31.219Z,27.29
2018-06-16T08:18:31.168Z,27.45
2018-06-16T08:19:31.113Z,27.32
2018-06-16T08:20:31.060Z,27.33
2018-06-16T08:21:31.005Z,27.42
2018-06-16T08:22:30.949Z,27.33
2018-06-16T08:23:30.896Z,27.26
2018-06-16T08:24:30.874Z,27.22
2018-06-16T08:25:30.787Z,27.18
2018-06-16T08:26:31.986Z,27.25
2018-06-16T08:27:30.683Z,27.36
2018-06-16T08:28:30.629Z,27.27
2018-06-16T08:29:30.574Z,27.30
2018-06-16T08:30:30.519Z,27.30
2018-06-16T08:31:30.466Z,27.55
2018-06-16T08:32:30.415Z,27.49
2018-06-16T08:33:30.361Z,27.54
2018-06-16T08:34:30.304Z,27.51
2018-06-16T08:35:30.256Z,27.40
2018-06-16T08:36:30.198Z,27.37
2018-06-16T08:37:30.150Z,27.59
2018-06-16T08:38:30.095Z,27.67
2018-06-16T08:39:30.042Z,27.86
2018-06-16T08:40:29.986Z,27.82
2018-06-16T08:41:29.931Z,27.93
2018-06-16T08:42:29.879Z,28.07
2018-06-16T08:43:29.826Z,28.23
2018-06-16T08:44:29.772Z,28.48
2018-06-16T08:45:29.718Z,28.47
2018-06-16T08:46:29.667Z,28.45
2018-06-16T08:47:29.622Z,28.47
2018-06-16T08:48:29.560Z,28.14
2018-06-16T08:49:29.507Z,28.14
2018-06-16T08:50:29.456Z,28.23
2018-06-16T08:51:29.403Z,28.33
2018-06-16T08:52:29.349Z,28.52
2018-06-16T08:53:29.293Z,28.64
2018-06-16T08:54:29.239Z,28.59
2018-06-16T08:55:29.219Z,28.59
2018-06-16T08:56:29.138Z,28.66
2018-06-16T08:57:29.080Z,28.66
2018-06-16T08:58:29.031Z,28.75
2018-06-16T08:59:28.978Z,28.74
2018-06-16T09:00:28.922Z,28.78
2018-06-16T09:01:28.871Z,28.75
2018-06-16T09:02:28.816Z,28.79
2018-06-16T09:03:28.763Z,28.72
2018-06-16T09:04:28.719Z,28.75
2018-06-16T09:05:28.658Z,28.94
2018-06-16T09:06:28.603Z,29.05
2018-06-16T09:07:28.554Z,29.22
2018-06-16T09:08:28.502Z,29.32
2018-06-16T09:09:28.455Z,29.31
2018-06-16T09:10:28.399Z,29.34
2018-06-16T09:11:28.364Z,29.26
2018-06-16T09:12:28.292Z,29.19
2018-06-16T09:13:28.245Z,29.14
2018-06-16T09:14:28.185Z,29.20
2018-06-16T09:15:28.134Z,29.14
2018-06-16T09:16:28.094Z,29.17
2018-06-16T09:17:28.037Z,29.04
2018-06-16T09:18:27.977Z,29.01
2018-06-16T09:19:27.926Z,29.10
2018-06-16T09:20:27.871Z,29.16
2018-06-16T09:21:27.819Z,29.05
2018-06-16T09:22:27.768Z,28.97
2018-06-16T09:23:27.719Z,28.76
2018-06-16T09:24:27.664Z,28.62
2018-06-16T09:25:27.611Z,28.51
2018-06-16T09:26:27.560Z,28.33
2018-06-16T09:27:27.504Z,28.30
2018-06-16T09:28:27.455Z,28.27
2018-06-16T09:29:27.403Z,28.14
2018-06-16T09:30:27.348Z,28.07
2018-06-16T09:31:27.295Z,28.07
2018-06-16T09:32:27.245Z,28.22
2018-06-16T09:33:27.189Z,28.30
2018-06-16T09:34:27.139Z,28.30
2018-06-16T09:35:27.089Z,28.52
2018-06-16T09:36:27.032Z,28.49
2018-06-16T09:37:26.980Z,28.62
2018-06-16T09:38:26.928Z,28.59
2018-06-16T09:39:26.885Z,28.54
2018-06-16T09:40:26.832Z,28.70
2018-06-16T09:41:26.775Z,28.78
2018-06-16T09:42:26.749Z,28.70
2018-06-16T09:43:26.660Z,28.79
2018-06-16T09:44:26.624Z,28.82
2018-06-16T09:45:26.557Z,28.86
2018-06-16T09:46:26.507Z,29.04
2018-06-16T09:47:26.457Z,28.98
2018-06-16T09:48:26.403Z,28.79
2018-06-16T09:49:26.349Z,28.76
2018-06-16T09:50:26.302Z,28.76
2018-06-16T09:51:26.244Z,29.01
2018-06-16T09:52:26.192Z,29.08
2018-06-16T09:53:26.145Z,29.20
2018-06-16T09:54:26.084Z,29.12
2018-06-16T09:55:26.032Z,29.20
2018-06-16T09:56:25.980Z,29.27
2018-06-16T09:57:25.928Z,29.32
2018-06-16T09:58:25.876Z,29.24
2018-06-16T09:59:25.823Z,29.26
2018-06-16T10:00:25.772Z,29.47
2018-06-16T10:01:25.719Z,29.66
2018-06-16T10:02:25.665Z,29.72
2018-06-16T10:03:25.693Z,29.71
2018-06-16T10:04:25.562Z,29.66
2018-06-16T10:05:25.508Z,29.65
2018-06-16T10:06:25.458Z,29.59
2018-06-16T10:07:25.406Z,29.51
2018-06-16T10:08:25.353Z,29.51
2018-06-16T10:09:25.351Z,29.29
2018-06-16T10:10:25.255Z,29.24
2018-06-16T10:11:25.208Z,29.14
2018-06-16T10:12:25.144Z,29.20
2018-06-16T10:13:25.130Z,29.14
2018-06-16T10:14:25.040Z,29.23
2018-06-16T10:15:24.983Z,29.20
2018-06-16T10:16:24.933Z,29.32
2018-06-16T10:17:24.887Z,29.38
2018-06-16T10:18:24.829Z,29.54
2018-06-16T10:19:24.779Z,29.61
2018-06-16T10:20:24.725Z,29.71
2018-06-16T10:21:24.674Z,29.69
2018-06-16T10:22:24.618Z,29.97
2018-06-16T10:23:24.568Z,30.27
2018-06-16T10:24:24.517Z,30.32
2018-06-16T10:25:24.465Z,30.66
2018-06-16T10:26:24.412Z,30.73
2018-06-16T10:27:24.359Z,30.78
2018-06-16T10:28:24.308Z,30.84
2018-06-16T10:29:24.256Z,30.91
2018-06-16T10:30:24.207Z,30.85
2018-06-16T10:31:24.155Z,30.92
2018-06-16T10:32:24.103Z,31.09
2018-06-16T10:33:24.049Z,31.22
2018-06-16T10:34:23.998Z,31.20
2018-06-16T10:35:23.950Z,31.27
2018-06-16T10:36:23.920Z,31.09
2018-06-16T10:37:23.854Z,30.90
2018-06-16T10:38:23.803Z,30.85
2018-06-16T10:39:23.746Z,30.84
2018-06-16T10:40:23.689Z,30.90
2018-06-16T10:41:23.637Z,30.87
2018-06-16T10:42:23.590Z,30.90
2018-06-16T10:43:23.542Z,30.97
2018-06-16T10:44:23.490Z,31.00
2018-06-16T10:45:23.440Z,30.99
2018-06-16T10:46:23.378Z,30.83
2018-06-16T10:47:23.329Z,30.73
2018-06-16T10:48:23.279Z,30.69
2018-06-16T10:49:23.234Z,30.59
2018-06-16T10:50:23.177Z,30.50
2018-06-16T10:51:23.132Z,30.40
2018-06-16T10:52:23.072Z,30.43
2018-06-16T10:53:23.022Z,30.30
2018-06-16T10:54:22.969Z,30.19
2018-06-16T10:55:22.918Z,30.40
2018-06-16T10:56:22.868Z,30.55
2018-06-16T10:57:22.816Z,30.66
2018-06-16T10:58:22.771Z,30.59
2018-06-16T10:59:22.711Z,30.55
2018-06-16T11:00:22.702Z,30.57
2018-06-16T11:01:22.607Z,30.30
2018-06-16T11:02:22.561Z,30.09
2018-06-16T11:03:22.563Z,30.00
2018-06-16T11:04:22.488Z,30.00
2018-06-16T11:05:22.408Z,29.94
2018-06-16T11:06:22.352Z,30.08
2018-06-16T11:07:22.299Z,30.03
2018-06-16T11:08:22.249Z,29.91
2018-06-16T11:09:22.274Z,29.87
2018-06-16T11:10:22.147Z,29.87
2018-06-16T11:11:22.115Z,29.93
2018-06-16T11:12:22.040Z,29.95
2018-06-16T11:13:21.989Z,30.35
2018-06-16T11:14:21.942Z,30.81
2018-06-16T11:15:21.901Z,30.90
2018-06-16T11:16:21.854Z,30.96
2018-06-16T11:17:21.784Z,30.99
2018-06-16T11:18:21.736Z,31.14
2018-06-16T11:19:21.701Z,31.21
2018-06-16T11:20:21.643Z,31.33
2018-06-16T11:21:21.587Z,31.40
2018-06-16T11:22:21.535Z,31.28
2018-06-16T11:23:21.495Z,31.22
2018-06-16T11:24:21.436Z,31.05
2018-06-16T11:25:21.385Z,31.05
2018-06-16T11:26:21.331Z,31.10
2018-06-16T11:27:21.292Z,31.25
2018-06-16T11:28:21.236Z,31.40
2018-06-16T11:29:21.189Z,31.52
2018-06-16T11:30:21.147Z,31.56
2018-06-16T11:31:21.087Z,31.71
2018-06-16T11:32:21.036Z,31.85
2018-06-16T11:33:20.992Z,32.19
2018-06-16T11:34:20.962Z,32.22
2018-06-16T11:35:20.906Z,32.56
2018-06-16T11:36:20.858Z,32.65
2018-06-16T11:37:20.805Z,32.75
2018-06-16T11:38:20.772Z,32.90
2018-06-16T11:39:20.735Z,32.87
2018-06-16T11:40:20.666Z,33.04
2018-06-16T11:41:20.623Z,33.27
2018-06-16T11:42:20.572Z,33.23
2018-06-16T11:43:20.542Z,33.36
2018-06-16T11:44:20.482Z,33.47
2018-06-16T11:45:20.431Z,33.47
2018-06-16T11:46:20.404Z,33.49
2018-06-16T11:47:20.345Z,33.31
2018-06-16T11:48:20.301Z,33.27
2018-06-16T11:49:20.256Z,33.40
2018-06-16T11:50:20.258Z,33.39
2018-06-16T11:51:20.161Z,33.43
2018-06-16T11:52:20.115Z,33.27
2018-06-16T11:53:20.066Z,33.07
2018-06-16T11:54:20.022Z,33.01
2018-06-16T11:55:19.987Z,33.15
2018-06-16T11:56:19.932Z,33.27
2018-06-16T11:57:19.882Z,33.31
2018-06-16T11:58:19.836Z,33.24
2018-06-16T11:59:19.795Z,33.05
2018-06-16T12:00:19.743Z,33.09
2018-06-16T12:01:19.699Z,33.09
2018-06-16T12:02:19.651Z,33.37
2018-06-16T12:03:19.607Z,33.55
2018-06-16T12:04:19.557Z,33.46
2018-06-16T12:05:19.504Z,33.55
2018-06-16T12:06:19.465Z,33.28
2018-06-16T12:07:19.419Z,33.17
2018-06-16T12:08:19.368Z,32.95
2018-06-16T12:09:19.324Z,32.80
2018-06-16T12:10:19.289Z,32.93
2018-06-16T12:11:19.242Z,32.71
2018-06-16T12:12:19.178Z,32.70
2018-06-16T12:13:19.126Z,32.80
2018-06-16T12:14:19.081Z,32.74
2018-06-16T12:15:19.034Z,32.77
2018-06-16T12:16:18.982Z,32.71
2018-06-16T12:17:18.938Z,32.51
2018-06-16T12:18:18.888Z,32.45
2018-06-16T12:19:18.849Z,32.49
2018-06-16T12:20:18.794Z,32.58
2018-06-16T12:21:18.738Z,32.82
2018-06-16T12:22:18.690Z,32.90
2018-06-16T12:23:18.642Z,32.70
2018-06-16T12:24:18.592Z,32.77
2018-06-16T12:25:18.542Z,32.82
2018-06-16T12:26:18.502Z,33.09
2018-06-16T12:27:18.452Z,33.27
2018-06-16T12:28:18.401Z,33.28
2018-06-16T12:29:18.348Z,33.52
2018-06-16T12:30:18.300Z,33.73
2018-06-16T12:31:18.252Z,33.47
2018-06-16T12:32:18.208Z,33.36
2018-06-16T12:33:18.156Z,33.50
2018-06-16T12:34:18.108Z,33.71
2018-06-16T12:35:18.055Z,33.52
2018-06-16T12:36:18.014Z,33.36
2018-06-16T12:37:17.983Z,32.82
2018-06-16T12:38:17.910Z,32.83
2018-06-16T12:39:17.873Z,32.65
2018-06-16T12:40:17.810Z,32.48
2018-06-16T12:41:17.765Z,32.22
2018-06-16T12:42:17.711Z,32.29
2018-06-16T12:43:17.706Z,32.21
2018-06-16T12:44:17.624Z,32.43
2018-06-16T12:45:17.569Z,32.59
2018-06-16T12:46:17.521Z,32.68
2018-06-16T12:47:17.464Z,32.68
2018-06-16T12:48:17.424Z,32.65
2018-06-16T12:49:17.361Z,32.55
2018-06-16T12:50:17.438Z,32.65
2018-06-16T12:51:17.274Z,32.85